Time;durP1;ratioP1;P1;durP2;ratioP2;P2;SDS_P1;SDS_P2;PMS_P1;PMS_P2;Temp;Humidity;BMP_temperature;BMP_pressure;BME280_temperature;BME280_humidity;BME280_pressure;Samples;Min_cycle;Max_cycle;Signal;HPM_P1;HPM_P2
2022/05/07 00:01:59;;;;;;;68.55;46.90;;;13.70;99.90;;;;;;4995626;28;20062;-53
2022/05/07 00:04:25;;;;;;;66.70;45.97;;;13.60;99.90;;;;;;4995846;28;20487;-53
2022/05/07 00:06:51;;;;;;;67.45;44.15;;;13.60;99.90;;;;;;4995687;28;20428;-53
2022/05/07 00:09:18;;;;;;;83.93;54.63;;;13.60;99.90;;;;;;4995610;28;20026;-53
2022/05/07 00:11:47;;;;;;;88.72;61.53;;;13.70;99.90;;;;;;4995872;28;20026;-53
2022/05/07 00:14:13;;;;;;;81.50;56.25;;;13.70;99.90;;;;;;4995615;28;20034;-54
2022/05/07 00:19:24;;;;;;;70.70;46.08;;;13.60;99.90;;;;;;4995520;28;20111;-53
2022/05/07 00:21:51;;;;;;;63.03;42.38;;;13.70;99.90;;;;;;4995472;28;20023;-53
2022/05/07 00:24:17;;;;;;;60.47;44.22;;;13.70;99.90;;;;;;4995462;28;20105;-53
2022/05/07 00:26:44;;;;;;;58.20;39.47;;;13.70;99.90;;;;;;4995708;28;20109;-53
2022/05/07 00:29:10;;;;;;;51.50;38.95;;;13.70;99.90;;;;;;4977960;28;20026;-53
2022/05/07 00:31:36;;;;;;;55.60;37.85;;;13.70;99.90;;;;;;4977939;28;20080;-53
2022/05/07 00:34:02;;;;;;;55.22;37.28;;;13.60;99.90;;;;;;4995426;28;20034;-53
2022/05/07 00:36:28;;;;;;;53.38;36.38;;;13.60;99.90;;;;;;4995215;28;20031;-53
2022/05/07 00:38:54;;;;;;;51.78;37.42;;;13.60;99.90;;;;;;4995312;28;20030;-53
2022/05/07 00:41:20;;;;;;;52.88;37.88;;;13.60;99.90;;;;;;4995274;28;20033;-53
2022/05/07 00:43:47;;;;;;;56.58;39.28;;;13.60;99.90;;;;;;4995169;28;20026;-53
2022/05/07 00:46:12;;;;;;;64.07;46.50;;;13.60;99.90;;;;;;4977662;28;20037;-53
2022/05/07 00:48:38;;;;;;;61.88;40.95;;;13.60;99.90;;;;;;4995206;28;20263;-53
2022/05/07 00:53:50;;;;;;;62.88;43.15;;;13.60;99.90;;;;;;4993887;28;20105;-53
2022/05/07 00:56:16;;;;;;;75.15;45.83;;;13.50;99.90;;;;;;4994999;28;20030;-53
2022/05/07 00:58:43;;;;;;;61.67;40.40;;;13.60;99.90;;;;;;4995217;28;20022;-53
2022/05/07 01:01:11;;;;;;;71.38;43.28;;;13.60;99.90;;;;;;4977551;28;20038;-53
2022/05/07 01:03:38;;;;;;;85.78;49.13;;;13.60;99.90;;;;;;4977755;28;20457;-53
2022/05/07 01:06:04;;;;;;;94.47;52.33;;;13.60;99.90;;;;;;4995057;28;20033;-53
2022/05/07 01:08:32;;;;;;;104.70;55.10;;;13.60;99.90;;;;;;4981772;28;20346;-53
2022/05/07 01:11:00;;;;;;;93.72;51.13;;;13.60;99.90;;;;;;4981513;28;20037;-53
2022/05/07 01:13:27;;;;;;;79.75;48.58;;;13.60;99.90;;;;;;4981647;28;20030;-53
2022/05/07 01:15:56;;;;;;;74.82;46.88;;;13.60;99.90;;;;;;4981509;28;20035;-53
2022/05/07 01:18:25;;;;;;;67.47;43.25;;;13.60;99.90;;;;;;4998711;28;20050;-53
2022/05/07 01:20:55;;;;;;;63.60;42.83;;;13.50;99.90;;;;;;4998766;28;20040;-53
2022/05/07 01:23:21;;;;;;;66.53;44.63;;;13.50;99.90;;;;;;4981390;28;20113;-53
2022/05/07 01:25:47;;;;;;;73.10;48.13;;;13.50;99.90;;;;;;4981022;28;20423;-53
2022/05/07 01:28:14;;;;;;;70.75;44.78;;;13.60;99.90;;;;;;4981371;28;20031;-53
2022/05/07 01:30:40;;;;;;;78.57;48.08;;;13.60;99.90;;;;;;4998638;28;20073;-53
2022/05/07 01:33:06;;;;;;;65.35;44.42;;;13.50;99.90;;;;;;4998596;28;20093;-53
2022/05/07 01:35:33;;;;;;;62.08;42.60;;;13.60;99.90;;;;;;4981163;28;20034;-54
2022/05/07 01:37:59;;;;;;;64.63;44.42;;;13.60;99.90;;;;;;4998521;28;20093;-53
2022/05/07 01:40:30;;;;;;;69.50;44.63;;;13.50;99.90;;;;;;4981108;28;20030;-53
2022/05/07 01:42:57;;;;;;;69.50;45.75;;;13.50;99.90;;;;;;4980907;28;20121;-53
2022/05/07 01:45:24;;;;;;;66.68;45.65;;;13.60;99.90;;;;;;4980832;28;20034;-53
2022/05/07 01:48:10;;;;;;;62.80;45.22;;;13.60;99.90;;;;;;4980927;28;20041;-53
2022/05/07 01:50:43;;;;;;;64.30;43.13;;;13.60;99.90;;;;;;4980879;28;20038;-53
2022/05/07 01:53:12;;;;;;;65.00;45.50;;;13.60;99.90;;;;;;4997015;28;20027;-53
2022/05/07 01:55:43;;;;;;;66.47;44.63;;;13.60;99.90;;;;;;4980703;28;20034;-53
2022/05/07 01:58:11;;;;;;;64.57;43.10;;;13.60;99.90;;;;;;4980730;28;20391;-53
2022/05/07 02:00:40;;;;;;;64.53;44.72;;;13.60;99.90;;;;;;4996899;28;20061;-53
2022/05/07 02:03:06;;;;;;;74.43;48.53;;;13.60;99.90;;;;;;4996847;28;20104;-53
2022/05/07 02:05:32;;;;;;;70.20;45.38;;;13.60;99.90;;;;;;4998188;28;20034;-53
2022/05/07 02:07:59;;;;;;;65.57;43.20;;;13.50;99.90;;;;;;4980298;28;20033;-53
2022/05/07 02:10:26;;;;;;;66.10;44.53;;;13.50;99.90;;;;;;4980446;28;20031;-53
2022/05/07 02:12:55;;;;;;;62.53;42.75;;;13.60;99.90;;;;;;4996730;28;20070;-53
2022/05/07 02:15:23;;;;;;;63.92;44.95;;;13.60;99.90;;;;;;4980351;28;20041;-53
2022/05/07 02:17:53;;;;;;;57.15;39.75;;;13.60;99.90;;;;;;4976675;28;20485;-53
2022/05/07 02:20:19;;;;;;;58.92;39.60;;;13.60;99.90;;;;;;4978360;28;20059;-53
2022/05/07 02:22:46;;;;;;;62.50;40.35;;;13.50;99.90;;;;;;4976930;28;20093;-53
2022/05/07 02:25:12;;;;;;;59.15;40.45;;;13.50;99.90;;;;;;4976967;28;20473;-53
2022/05/07 02:27:38;;;;;;;57.13;39.55;;;13.50;99.90;;;;;;4978196;28;20050;-53
2022/05/07 02:30:06;;;;;;;65.07;42.33;;;13.50;99.90;;;;;;4976776;28;20034;-53
2022/05/07 02:32:32;;;;;;;69.90;46.45;;;13.50;99.90;;;;;;4960868;28;20035;-53
2022/05/07 02:34:58;;;;;;;63.72;42.38;;;13.50;99.90;;;;;;4976842;28;20038;-53
2022/05/07 02:37:35;;;;;;;63.47;42.85;;;13.40;99.90;;;;;;4977022;28;20122;-53
2022/05/07 02:40:02;;;;;;;66.72;43.47;;;13.40;99.90;;;;;;4960672;28;20039;-53
2022/05/07 02:42:34;;;;;;;61.97;41.38;;;13.40;99.90;;;;;;4977945;28;20046;-53
2022/05/07 02:45:08;;;;;;;65.07;43.17;;;13.40;99.90;;;;;;4960517;28;20126;-53
2022/05/07 02:47:39;;;;;;;69.18;45.00;;;13.50;99.90;;;;;;4960450;28;20027;-53
2022/05/07 02:50:07;;;;;;;69.07;45.35;;;13.50;99.90;;;;;;4976589;28;20023;-53
2022/05/07 02:52:34;;;;;;;65.65;44.35;;;13.50;99.90;;;;;;4968561;28;20481;-53
2022/05/07 02:55:07;;;;;;;65.32;44.03;;;13.50;99.90;;;;;;4976218;28;20492;-53
2022/05/07 02:57:34;;;;;;;66.45;45.63;;;13.50;99.90;;;;;;4960155;28;20033;-53
2022/05/07 03:00:00;;;;;;;63.40;43.63;;;13.60;99.90;;;;;;4976313;28;20035;-53
2022/05/07 03:02:27;;;;;;;62.00;43.05;;;13.60;99.90;;;;;;4977635;28;20031;-53
2022/05/07 03:04:54;;;;;;;64.32;43.75;;;13.60;99.90;;;;;;4976251;28;20035;-53
2022/05/07 03:07:20;;;;;;;65.15;44.35;;;13.50;99.90;;;;;;4960000;28;20031;-54
2022/05/07 03:09:49;;;;;;;60.35;42.30;;;13.50;99.90;;;;;;4959983;28;20026;-53
2022/05/07 03:12:15;;;;;;;58.78;41.13;;;13.50;99.90;;;;;;4960045;28;20491;-53
2022/05/07 03:14:44;;;;;;;59.33;40.47;;;13.50;99.90;;;;;;4959894;28;20122;-53
2022/05/07 03:17:10;;;;;;;57.05;38.05;;;13.50;99.90;;;;;;4966234;28;20556;-53
2022/05/07 03:19:36;;;;;;;56.50;38.95;;;13.50;99.90;;;;;;4995339;28;20122;-53
2022/05/07 03:22:02;;;;;;;54.40;38.50;;;13.60;99.90;;;;;;4979146;28;20439;-53
2022/05/07 03:24:30;;;;;;;52.40;37.97;;;13.60;99.90;;;;;;4979272;28;20026;-53
2022/05/07 03:27:00;;;;;;;55.35;38.47;;;13.60;99.90;;;;;;4979061;28;20029;-53
2022/05/07 03:29:27;;;;;;;59.33;41.47;;;13.60;99.90;;;;;;4978525;28;20042;-54
2022/05/07 03:32:13;;;;;;;51.10;38.28;;;13.60;99.90;;;;;;4996079;28;20027;-53
2022/05/07 03:34:39;;;;;;;57.25;39.47;;;13.50;99.90;;;;;;4996435;28;20038;-53
2022/05/07 03:37:06;;;;;;;50.05;37.08;;;13.60;99.90;;;;;;4978908;28;20026;-53
2022/05/07 03:39:33;;;;;;;54.08;37.75;;;13.60;99.90;;;;;;4970930;28;20035;-53
2022/05/07 03:42:00;;;;;;;55.30;37.83;;;13.60;99.90;;;;;;4991795;28;20117;-54
2022/05/07 03:44:25;;;;;;;55.03;38.58;;;13.60;99.90;;;;;;4995257;28;20065;-53
2022/05/07 03:46:54;;;;;;;59.10;39.28;;;13.60;99.90;;;;;;4996055;28;20133;-53
2022/05/07 03:49:21;;;;;;;60.28;43.22;;;13.70;99.90;;;;;;4978637;28;20030;-53
2022/05/07 03:54:33;;;;;;;56.55;40.28;;;13.60;99.90;;;;;;4994779;28;20022;-53
2022/05/07 03:57:00;;;;;;;62.30;41.90;;;13.60;99.90;;;;;;4994722;28;20591;-53
2022/05/07 03:59:31;;;;;;;56.47;38.42;;;13.50;99.90;;;;;;4978426;28;20037;-53
2022/05/07 04:01:57;;;;;;;56.25;38.45;;;13.50;99.90;;;;;;4996003;28;20030;-54
2022/05/07 04:04:39;;;;;;;61.03;40.58;;;13.50;99.90;;;;;;4978275;28;20034;-53
2022/05/07 04:07:09;;;;;;;56.10;38.63;;;13.60;99.90;;;;;;4994463;28;20129;-53
2022/05/07 04:09:39;;;;;;;76.15;42.65;;;13.60;99.90;;;;;;4995637;28;20477;-53
2022/05/07 04:12:07;;;;;;;66.05;40.13;;;13.60;99.90;;;;;;4995755;28;20022;-53
2022/05/07 04:14:34;;;;;;;76.18;43.47;;;13.60;99.90;;;;;;4970321;28;20400;-53
2022/05/07 04:17:03;;;;;;;75.30;42.58;;;13.60;99.90;;;;;;4977830;28;20047;-54
2022/05/07 04:19:29;;;;;;;60.30;40.35;;;13.60;99.90;;;;;;4978110;28;20038;-53
2022/05/07 04:21:57;;;;;;;62.58;38.97;;;13.70;99.90;;;;;;4978091;28;20022;-53
2022/05/07 04:24:33;;;;;;;55.38;38.38;;;13.70;99.90;;;;;;4995347;28;20497;-54
2022/05/07 04:27:00;;;;;;;56.45;38.30;;;13.70;99.90;;;;;;4978018;28;20069;-54
2022/05/07 04:29:27;;;;;;;53.83;38.90;;;13.70;99.90;;;;;;4977809;28;20037;-53
2022/05/07 04:32:12;;;;;;;64.30;41.17;;;13.80;99.90;;;;;;4993983;28;20034;-53
2022/05/07 04:34:38;;;;;;;55.47;38.53;;;13.80;99.90;;;;;;4994137;28;20388;-54
2022/05/07 04:37:06;;;;;;;55.13;38.30;;;13.80;99.90;;;;;;4994027;28;20057;-53
2022/05/07 04:39:34;;;;;;;57.15;39.42;;;13.90;99.90;;;;;;4977967;28;20027;-53
2022/05/07 04:42:03;;;;;;;56.47;39.92;;;13.90;99.90;;;;;;4977661;28;20088;-53
2022/05/07 04:44:44;;;;;;;56.50;38.28;;;14.00;99.90;;;;;;4974491;28;20038;-53
2022/05/07 04:47:18;;;;;;;55.70;38.53;;;14.00;99.90;;;;;;4975765;28;20027;-53
2022/05/07 04:49:45;;;;;;;61.88;42.78;;;14.00;99.90;;;;;;4995235;28;20030;-53
2022/05/07 04:52:12;;;;;;;52.40;37.92;;;14.10;99.90;;;;;;4993786;28;20040;-54
2022/05/07 04:54:39;;;;;;;58.03;40.03;;;14.10;99.90;;;;;;4993697;28;20030;-53
2022/05/07 04:57:07;;;;;;;52.05;38.78;;;14.10;99.90;;;;;;4993813;28;20104;-53
2022/05/07 04:59:44;;;;;;;54.63;38.85;;;14.10;99.90;;;;;;4971350;28;20100;-54
2022/05/07 05:02:15;;;;;;;52.97;39.35;;;14.20;99.90;;;;;;4993698;28;20505;-54
2022/05/07 05:04:47;;;;;;;55.10;40.30;;;14.30;99.90;;;;;;4994894;28;20061;-53
2022/05/07 05:07:15;;;;;;;61.72;40.03;;;14.30;99.90;;;;;;4993590;28;20476;-54
2022/05/07 05:09:44;;;;;;;62.60;41.75;;;14.40;99.90;;;;;;4977500;28;20022;-54
2022/05/07 05:12:15;;;;;;;57.67;39.08;;;14.40;99.90;;;;;;4977372;28;20076;-54
2022/05/07 05:15:04;;;;;;;;;;;14.50;99.90;;;;;;4977810;28;20484;-53
2022/05/07 05:18:03;;;;;;;60.10;39.45;;;14.50;99.90;;;;;;4993255;28;20371;-54
2022/05/07 05:20:32;;;;;;;57.63;40.40;;;14.60;99.90;;;;;;4993518;28;20042;-54
2022/05/07 05:23:09;;;;;;;52.92;39.72;;;14.70;99.90;;;;;;4977413;28;20037;-54
2022/05/07 05:25:46;;;;;;;53.30;38.67;;;14.70;99.90;;;;;;4993412;28;20103;-54
2022/05/07 05:28:21;;;;;;;55.03;38.50;;;14.70;99.90;;;;;;4993801;28;20038;-54
2022/05/07 05:30:52;;;;;;;49.03;34.92;;;14.80;99.90;;;;;;4977281;28;20511;-54
2022/05/07 05:33:21;;;;;;;52.05;37.38;;;14.80;99.90;;;;;;4977174;28;20388;-54
2022/05/07 05:36:00;;;;;;;54.35;38.35;;;14.90;99.90;;;;;;4993513;28;20038;-54
2022/05/07 05:38:28;;;;;;;52.20;37.70;;;14.80;99.90;;;;;;4977288;28;20030;-53
2022/05/07 05:40:55;;;;;;;53.53;37.95;;;14.90;99.90;;;;;;4977204;28;20431;-53
2022/05/07 05:43:21;;;;;;;48.92;36.63;;;15.00;99.90;;;;;;4994659;28;20089;-53
2022/05/07 05:45:47;;;;;;;47.22;34.65;;;15.10;99.90;;;;;;4977398;28;20033;-54
2022/05/07 05:48:15;;;;;;;43.80;33.40;;;15.00;99.90;;;;;;4977265;28;20073;-54
2022/05/07 05:50:45;;;;;;;47.70;34.28;;;15.00;99.90;;;;;;4993273;28;20026;-54
2022/05/07 05:53:13;;;;;;;48.92;35.60;;;15.10;99.90;;;;;;4978936;28;20045;-54
2022/05/07 05:55:43;;;;;;;48.90;34.15;;;15.10;99.90;;;;;;4980785;28;20035;-54
2022/05/07 05:58:09;;;;;;;46.80;34.72;;;15.20;99.90;;;;;;4980816;28;20487;-53
2022/05/07 06:00:38;;;;;;;48.15;35.30;;;15.30;99.90;;;;;;4980734;28;20462;-53
2022/05/07 06:03:04;;;;;;;44.25;32.08;;;15.40;99.90;;;;;;4998086;28;20030;-53
2022/05/07 06:05:30;;;;;;;46.10;32.50;;;15.50;99.90;;;;;;4980523;28;20399;-54
2022/05/07 06:07:56;;;;;;;46.45;35.53;;;15.50;99.90;;;;;;4980510;28;20026;-54
2022/05/07 06:10:31;;;;;;;41.83;29.63;;;15.70;99.90;;;;;;4980520;28;20026;-54
2022/05/07 06:12:57;;;;;;;44.70;33.33;;;15.70;99.90;;;;;;4980487;28;20033;-54
2022/05/07 06:15:24;;;;;;;45.35;32.95;;;15.80;99.90;;;;;;4980311;28;20117;-54
2022/05/07 06:17:50;;;;;;;39.53;30.65;;;16.00;99.90;;;;;;4997650;28;20123;-54
2022/05/07 06:20:16;;;;;;;43.78;31.92;;;16.20;99.90;;;;;;4980290;28;20108;-53
2022/05/07 06:22:48;;;;;;;44.20;32.72;;;16.40;99.90;;;;;;4980218;28;20026;-54
2022/05/07 06:28:03;;;;;;;38.88;29.20;;;16.80;99.90;;;;;;4996370;28;20026;-54
2022/05/07 06:30:35;;;;;;;39.00;29.83;;;16.90;99.90;;;;;;4980026;28;20130;-54
2022/05/07 06:33:03;;;;;;;34.53;28.23;;;16.80;99.90;;;;;;4980115;28;20113;-54
2022/05/07 06:35:35;;;;;;;40.25;29.67;;;16.80;99.90;;;;;;4979962;28;20113;-54
2022/05/07 06:38:09;;;;;;;39.53;31.02;;;17.00;99.90;;;;;;4997389;28;20161;-54
2022/05/07 06:40:38;;;;;;;37.72;29.95;;;17.20;99.90;;;;;;4979928;28;20256;-54
2022/05/07 06:43:05;;;;;;;49.22;32.22;;;17.60;99.90;;;;;;4995843;28;20476;-54
2022/05/07 06:45:44;;;;;;;44.65;31.05;;;17.90;99.90;;;;;;4980035;28;20034;-54
2022/05/07 06:48:11;;;;;;;39.35;29.73;;;18.30;99.90;;;;;;4979794;28;20026;-54
2022/05/07 06:50:39;;;;;;;31.83;24.85;;;18.60;99.90;;;;;;4979786;28;20037;-54
2022/05/07 06:53:07;;;;;;;33.30;22.05;;;18.80;99.90;;;;;;4979736;28;20492;-54
2022/05/07 06:55:54;;;;;;;32.72;22.38;;;18.80;99.90;;;;;;4997188;28;20051;-55
2022/05/07 06:58:19;;;;;;;29.88;22.90;;;19.00;99.90;;;;;;4997089;28;20034;-54
2022/05/07 07:00:45;;;;;;;28.80;22.00;;;19.30;99.90;;;;;;4996859;28;20032;-54
2022/05/07 07:03:11;;;;;;;28.98;22.52;;;19.40;99.90;;;;;;4997159;28;20426;-54
2022/05/07 07:05:37;;;;;;;39.75;20.38;;;19.60;99.90;;;;;;4995756;28;20038;-54
2022/05/07 07:08:03;;;;;;;26.92;18.40;;;19.50;99.90;;;;;;4996772;28;20106;-54
2022/05/07 07:10:29;;;;;;;30.10;18.60;;;19.60;99.90;;;;;;4996806;28;20033;-54
2022/05/07 07:12:55;;;;;;;32.13;18.92;;;19.60;99.90;;;;;;4996856;28;20030;-54
2022/05/07 07:15:22;;;;;;;30.13;19.48;;;19.60;99.90;;;;;;4996458;28;20065;-54
2022/05/07 07:17:49;;;;;;;27.35;16.63;;;19.50;99.90;;;;;;4996614;28;20054;-54
2022/05/07 07:20:15;;;;;;;25.20;13.85;;;19.50;99.90;;;;;;4996792;28;20035;-54
2022/05/07 07:22:41;;;;;;;29.58;17.13;;;19.40;99.90;;;;;;4996618;28;20116;-54
2022/05/07 07:25:07;;;;;;;26.33;18.42;;;19.40;99.90;;;;;;4996639;28;20117;-54
2022/05/07 07:27:34;;;;;;;22.98;12.90;;;19.40;99.90;;;;;;4971286;28;20038;-54
2022/05/07 07:30:00;;;;;;;37.63;15.63;;;19.40;99.90;;;;;;4996619;28;20052;-54
2022/05/07 07:32:27;;;;;;;26.63;15.73;;;19.40;99.90;;;;;;4996456;28;20432;-54
2022/05/07 07:34:53;;;;;;;17.10;12.95;;;19.40;99.90;;;;;;4996465;28;20065;-54
2022/05/07 07:37:19;;;;;;;18.27;12.75;;;19.50;99.90;;;;;;4996345;28;20373;-54
2022/05/07 07:39:45;;;;;;;20.50;13.40;;;19.50;99.90;;;;;;4996529;28;20034;-54
2022/05/07 07:42:12;;;;;;;21.65;15.13;;;19.40;99.90;;;;;;4996286;28;20120;-54
2022/05/07 07:44:38;;;;;;;20.00;13.35;;;19.50;99.90;;;;;;4996189;28;20030;-54
2022/05/07 07:49:50;;;;;;;21.48;13.60;;;19.70;99.90;;;;;;4996025;28;20585;-54
2022/05/07 07:52:17;;;;;;;24.30;13.10;;;19.80;99.90;;;;;;4996113;28;20038;-54
2022/05/07 07:54:43;;;;;;;27.08;14.05;;;20.00;99.90;;;;;;4996268;28;20468;-54
2022/05/07 07:57:09;;;;;;;21.27;14.10;;;19.90;99.90;;;;;;4995868;28;20049;-54
2022/05/07 07:59:36;;;;;;;33.42;15.90;;;19.80;99.90;;;;;;4996143;28;20396;-54
2022/05/07 08:02:02;;;;;;;23.58;12.75;;;19.70;99.90;;;;;;4995951;28;20063;-54
2022/05/07 08:04:28;;;;;;;18.08;12.60;;;19.80;99.90;;;;;;4995875;28;20058;-54
2022/05/07 08:12:41;;;;;;;17.92;11.45;;;19.80;99.90;;;;;;4992403;28;20042;-54
2022/05/07 08:15:07;;;;;;;16.55;10.68;;;20.00;99.90;;;;;;4995550;28;20038;-54
2022/05/07 08:17:33;;;;;;;26.92;12.90;;;20.20;99.90;;;;;;4995483;28;20044;-54
2022/05/07 08:20:00;;;;;;;16.67;11.85;;;20.10;99.90;;;;;;4995482;28;20037;-54
2022/05/07 08:22:26;;;;;;;15.77;11.05;;;20.30;99.90;;;;;;4995589;28;20034;-54
2022/05/07 08:24:52;;;;;;;19.90;11.02;;;20.40;99.90;;;;;;4995353;28;20069;-54
2022/05/07 08:27:19;;;;;;;16.13;9.60;;;20.40;99.90;;;;;;4995378;28;20045;-54
2022/05/07 08:29:45;;;;;;;14.23;9.48;;;20.00;99.90;;;;;;4995570;28;20026;-54
2022/05/07 08:32:11;;;;;;;18.35;11.43;;;20.10;99.90;;;;;;4995308;28;20113;-54
2022/05/07 08:34:38;;;;;;;13.25;10.18;;;20.10;99.90;;;;;;4995365;28;20061;-54
2022/05/07 08:37:04;;;;;;;13.55;9.18;;;19.60;99.90;;;;;;4995402;28;20030;-54
2022/05/07 08:39:31;;;;;;;18.55;9.27;;;19.60;99.90;;;;;;4995325;28;20061;-54
2022/05/07 08:41:57;;;;;;;14.98;9.27;;;19.60;99.90;;;;;;4995170;28;20427;-54
2022/05/07 08:44:23;;;;;;;17.50;11.07;;;19.80;99.90;;;;;;4977786;28;20053;-54
2022/05/07 08:46:49;;;;;;;13.90;10.07;;;20.00;99.90;;;;;;4995260;28;20376;-54
2022/05/07 08:49:15;;;;;;;14.98;9.52;;;20.10;99.90;;;;;;4995298;28;20033;-54
2022/05/07 08:51:42;;;;;;;19.98;11.85;;;20.20;99.90;;;;;;4995468;28;20030;-54
2022/05/07 08:54:11;;;;;;;24.15;12.18;;;20.20;99.90;;;;;;4994966;28;20161;-54
2022/05/07 08:56:37;;;;;;;17.17;10.85;;;20.50;99.90;;;;;;4995120;28;20108;-54
2022/05/07 08:59:03;;;;;;;16.50;10.57;;;20.70;99.90;;;;;;4995153;28;20034;-54
2022/05/07 09:01:29;;;;;;;18.92;11.52;;;20.80;99.90;;;;;;4995139;28;20058;-54
2022/05/07 09:03:55;;;;;;;24.65;10.77;;;20.80;99.90;;;;;;4995094;28;20026;-54
2022/05/07 09:06:24;;;;;;;28.75;13.27;;;20.80;99.90;;;;;;4994882;28;20098;-54
2022/05/07 09:08:52;;;;;;;17.98;10.85;;;20.80;99.90;;;;;;4994811;28;20030;-54
2022/05/07 09:11:19;;;;;;;18.38;11.27;;;20.90;99.90;;;;;;4995122;28;20018;-54
2022/05/07 09:13:46;;;;;;;25.83;12.63;;;21.00;99.90;;;;;;4995053;28;20030;-54
2022/05/07 09:16:12;;;;;;;15.43;10.23;;;21.10;99.90;;;;;;4995114;28;20030;-55
2022/05/07 09:18:46;;;;;;;15.85;11.95;;;20.90;99.90;;;;;;4994794;28;20057;-54
2022/05/07 09:21:26;;;;;;;23.02;12.38;;;20.90;99.90;;;;;;4995049;28;20042;-54
2022/05/07 09:23:58;;;;;;;14.27;11.10;;;21.10;99.90;;;;;;4994956;28;20038;-54
2022/05/07 09:26:44;;;;;;;17.55;11.88;;;20.90;99.00;;;;;;4994687;28;20069;-54
2022/05/07 09:29:13;;;;;;;16.73;11.27;;;20.80;99.90;;;;;;4998102;28;20085;-54
2022/05/07 09:31:44;;;;;;;22.98;11.93;;;20.80;99.90;;;;;;4998479;28;20018;-54
2022/05/07 09:36:57;;;;;;;22.30;11.90;;;20.90;99.90;;;;;;4998586;28;20034;-54
2022/05/07 09:39:30;;;;;;;30.55;12.77;;;20.70;99.90;;;;;;4998547;28;20503;-54
2022/05/07 09:41:58;;;;;;;21.65;12.00;;;21.10;99.90;;;;;;4998441;28;20088;-54
2022/05/07 09:44:27;;;;;;;18.98;11.48;;;21.40;99.90;;;;;;4998285;28;20058;-54
2022/05/07 09:46:55;;;;;;;16.10;11.60;;;21.60;99.90;;;;;;4998423;28;20117;-54
2022/05/07 09:49:24;;;;;;;22.85;13.05;;;21.60;97.80;;;;;;4998524;28;20361;-54
2022/05/07 09:51:52;;;;;;;15.93;11.93;;;21.90;99.90;;;;;;4998204;28;20065;-54
2022/05/07 09:59:51;;;;;;;22.05;12.38;;;21.60;97.30;;;;;;4998210;28;20483;-54
2022/05/07 10:02:35;;;;;;;14.15;10.93;;;21.70;99.40;;;;;;4998337;28;20030;-54
2022/05/07 10:05:30;;;;;;;18.10;11.02;;;21.70;98.70;;;;;;4997923;28;20030;-54
2022/05/07 10:08:24;;;;;;;21.05;11.65;;;21.70;96.40;;;;;;4993106;28;20407;-54
2022/05/07 10:10:53;;;;;;;19.20;11.50;;;21.60;98.20;;;;;;4992485;28;20515;-54
2022/05/07 10:13:20;;;;;;;22.85;12.95;;;21.50;97.50;;;;;;4997884;28;20030;-54
2022/05/07 10:15:46;;;;;;;18.40;11.60;;;21.30;97.40;;;;;;4997967;28;20065;-54
2022/05/07 10:18:16;;;;;;;16.60;12.07;;;21.20;95.90;;;;;;4997800;28;20054;-54
2022/05/07 10:20:45;;;;;;;20.38;12.60;;;21.10;96.10;;;;;;4997862;28;20065;-54
2022/05/07 10:23:13;;;;;;;20.85;14.82;;;20.80;97.00;;;;;;4997821;28;20503;-54
2022/05/07 10:25:40;;;;;;;21.23;12.18;;;20.90;97.80;;;;;;4997654;28;20496;-54
2022/05/07 10:28:15;;;;;;;27.40;12.98;;;21.10;96.40;;;;;;4997673;28;20113;-54
2022/05/07 10:30:49;;;;;;;36.63;14.05;;;21.00;98.00;;;;;;4991072;28;20407;-54
2022/05/07 10:33:15;;;;;;;20.33;11.95;;;21.30;99.90;;;;;;4997632;28;20026;-54
2022/05/07 10:35:51;;;;;;;22.52;12.30;;;21.30;97.30;;;;;;4997522;28;20511;-54
2022/05/07 10:38:24;;;;;;;34.22;13.13;;;21.40;98.00;;;;;;4997373;28;20029;-54
2022/05/07 10:40:59;;;;;;;23.15;13.80;;;21.40;95.80;;;;;;4997313;28;20108;-54
2022/05/07 10:43:37;;;;;;;24.95;14.07;;;21.40;97.80;;;;;;4997371;28;20564;-54
2022/05/07 10:46:07;;;;;;;17.95;12.77;;;21.40;98.60;;;;;;4997234;28;20042;-54
2022/05/07 10:48:57;;;;;;;19.13;12.45;;;21.10;93.60;;;;;;4997742;28;20053;-54
2022/05/07 10:51:29;;;;;;;16.88;12.65;;;21.10;92.50;;;;;;4997333;28;20086;-54
2022/05/07 10:54:03;;;;;;;16.60;12.18;;;20.90;91.50;;;;;;4997154;28;20400;-54
2022/05/07 10:56:31;;;;;;;19.40;13.38;;;20.80;92.70;;;;;;4997376;28;20041;-54
2022/05/07 10:58:57;;;;;;;15.50;13.43;;;20.90;94.90;;;;;;4997021;28;20041;-54
2022/05/07 11:01:28;;;;;;;24.25;13.23;;;20.90;94.70;;;;;;4996627;28;20322;-54
2022/05/07 11:04:04;;;;;;;;;;;21.10;95.90;;;;;;4997469;28;20031;-54
2022/05/07 11:06:43;;;;;;;22.48;13.35;;;21.30;95.40;;;;;;4997523;28;19914;-54
2022/05/07 11:09:15;;;;;;;23.33;17.20;;;21.40;97.20;;;;;;4997588;28;20037;-54
2022/05/07 11:11:47;;;;;;;19.85;13.05;;;21.30;96.80;;;;;;4996923;28;20137;-54
2022/05/07 11:14:30;;;;;;;20.08;11.70;;;21.40;97.30;;;;;;4996798;28;20428;-54
2022/05/07 11:16:59;;;;;;;24.92;12.52;;;21.40;98.20;;;;;;4996368;28;20057;-54
2022/05/07 11:19:30;;;;;;;33.00;16.23;;;21.40;99.30;;;;;;4996843;28;20066;-54
2022/05/07 11:21:59;;;;;;;32.92;13.43;;;21.50;98.80;;;;;;4996597;28;20113;-54
2022/05/07 11:24:27;;;;;;;48.30;14.65;;;21.50;98.00;;;;;;4996648;28;20034;-54
2022/05/07 11:26:55;;;;;;;29.35;15.38;;;21.50;97.50;;;;;;4997389;28;20440;-54
2022/05/07 11:29:22;;;;;;;27.55;15.60;;;21.50;98.80;;;;;;4997017;28;20469;-54
2022/05/07 11:31:54;;;;;;;17.75;12.50;;;21.50;99.90;;;;;;4996335;28;20400;-54
2022/05/07 11:34:32;;;;;;;14.30;12.57;;;21.60;98.10;;;;;;4997191;28;20030;-54
2022/05/07 11:37:14;;;;;;;23.75;15.38;;;21.70;95.60;;;;;;4997332;28;20065;-54
2022/05/07 11:39:54;;;;;;;26.13;14.73;;;21.60;93.50;;;;;;4989683;28;20027;-54
2022/05/07 11:42:32;;;;;;;26.20;15.68;;;21.60;93.50;;;;;;4996302;28;20034;-54
2022/05/07 11:47:56;;;;;;;18.05;13.68;;;21.50;91.70;;;;;;4996489;28;20026;-54
2022/05/07 11:50:29;;;;;;;19.50;14.13;;;21.50;93.90;;;;;;4995547;28;20026;-54
2022/05/07 11:52:56;;;;;;;20.40;13.07;;;21.40;92.20;;;;;;4996369;28;20166;-54
2022/05/07 11:55:29;;;;;;;20.15;12.65;;;21.40;94.70;;;;;;4996115;28;20045;-54
2022/05/07 11:57:56;;;;;;;18.23;13.15;;;21.40;91.00;;;;;;4996085;28;20034;-54
2022/05/07 12:00:26;;;;;;;14.07;11.82;;;21.30;90.70;;;;;;4995907;28;20025;-54
2022/05/07 12:02:55;;;;;;;19.13;13.75;;;21.50;90.80;;;;;;4996043;28;20042;-54
2022/05/07 12:05:22;;;;;;;16.45;12.70;;;21.60;90.40;;;;;;4995843;28;20026;-54
2022/05/07 12:07:50;;;;;;;20.48;13.13;;;21.60;89.80;;;;;;4995718;28;20097;-54
2022/05/07 12:10:18;;;;;;;13.85;11.60;;;21.50;90.80;;;;;;4995910;28;20027;-54
2022/05/07 12:12:48;;;;;;;18.67;12.15;;;21.50;89.80;;;;;;4995935;28;20033;-54
2022/05/07 12:15:14;;;;;;;18.38;12.57;;;21.50;90.90;;;;;;4995913;28;20030;-54
2022/05/07 12:17:52;;;;;;;26.02;13.40;;;21.60;86.70;;;;;;4995485;28;20050;-54
2022/05/07 12:20:22;;;;;;;26.65;15.32;;;21.60;92.80;;;;;;4995532;28;20030;-54
2022/05/07 12:31:08;;;;;;;15.55;12.48;;;22.00;88.90;;;;;;4995375;28;20034;-54
2022/05/07 12:33:37;;;;;;;39.63;14.32;;;22.20;92.90;;;;;;4987536;28;20433;-54
2022/05/07 12:36:03;;;;;;;25.23;11.52;;;22.20;94.40;;;;;;4995485;28;20049;-54
2022/05/07 12:38:29;;;;;;;26.25;14.02;;;22.20;91.30;;;;;;4995361;28;20050;-54
2022/05/07 12:40:55;;;;;;;22.15;12.93;;;22.20;91.90;;;;;;4995362;28;20038;-54
2022/05/07 12:43:22;;;;;;;21.35;13.13;;;22.20;95.40;;;;;;4995050;28;20038;-54
2022/05/07 12:45:49;;;;;;;19.75;14.00;;;22.20;94.50;;;;;;4995384;28;20841;-54
2022/05/07 12:48:16;;;;;;;17.48;12.32;;;22.30;95.50;;;;;;4995170;28;20022;-54
2022/05/07 12:50:41;;;;;;;19.77;12.32;;;22.40;92.20;;;;;;4995222;28;20041;-54
2022/05/07 12:53:07;;;;;;;21.50;13.55;;;22.50;96.60;;;;;;4995337;28;20027;-54
2022/05/07 12:55:33;;;;;;;33.88;15.88;;;22.60;96.90;;;;;;4995024;28;20030;-54
2022/05/07 12:57:59;;;;;;;19.17;12.70;;;22.80;94.30;;;;;;4995080;28;20072;-54
2022/05/07 13:00:26;;;;;;;21.15;14.77;;;22.70;93.80;;;;;;4994981;28;20034;-54
2022/05/07 13:02:53;;;;;;;18.38;12.57;;;22.80;93.50;;;;;;4994147;28;20380;-54
2022/05/07 13:05:19;;;;;;;23.85;13.90;;;22.80;93.00;;;;;;4994982;28;20122;-54
2022/05/07 13:07:45;;;;;;;16.35;13.30;;;22.70;93.70;;;;;;4994845;28;20128;-54
2022/05/07 13:10:11;;;;;;;20.98;14.70;;;22.70;93.70;;;;;;4994948;28;20034;-54
2022/05/07 13:12:39;;;;;;;19.70;13.55;;;22.60;91.30;;;;;;4994817;28;20074;-54
2022/05/07 13:15:05;;;;;;;22.80;14.18;;;22.50;94.90;;;;;;4995040;28;20118;-54
2022/05/07 13:17:31;;;;;;;29.17;14.80;;;22.50;96.20;;;;;;4994808;28;20108;-54